sensor_id;sensor_type;location;lat;lon;timestamp;P1;durP1;ratioP1;P2;durP2;ratioP2
735;SDS011;352;48.626;9.238;2023-10-13T00:00:37;6.43;;;4.07;;
735;SDS011;352;48.626;9.238;2023-10-13T00:03:05;5.10;;;3.97;;
735;SDS011;352;48.626;9.238;2023-10-13T00:05:39;6.00;;;4.80;;
735;SDS011;352;48.626;9.238;2023-10-13T00:08:08;5.20;;;4.10;;
735;SDS011;352;48.626;9.238;2023-10-13T00:10:35;3.90;;;3.50;;
735;SDS011;352;48.626;9.238;2023-10-13T00:13:02;9.20;;;4.27;;
735;SDS011;352;48.626;9.238;2023-10-13T00:15:39;4.80;;;4.40;;
735;SDS011;352;48.626;9.238;2023-10-13T00:18:11;5.43;;;4.57;;
735;SDS011;352;48.626;9.238;2023-10-13T00:20:39;6.33;;;4.70;;
735;SDS011;352;48.626;9.238;2023-10-13T00:23:13;5.17;;;4.50;;
735;SDS011;352;48.626;9.238;2023-10-13T00:25:40;5.40;;;4.40;;
735;SDS011;352;48.626;9.238;2023-10-13T00:28:14;5.07;;;4.37;;
735;SDS011;352;48.626;9.238;2023-10-13T00:30:49;8.23;;;5.10;;
735;SDS011;352;48.626;9.238;2023-10-13T00:33:17;6.00;;;4.33;;
735;SDS011;352;48.626;9.238;2023-10-13T00:35:45;5.67;;;5.00;;
735;SDS011;352;48.626;9.238;2023-10-13T00:38:14;7.20;;;4.90;;
735;SDS011;352;48.626;9.238;2023-10-13T00:40:42;5.17;;;4.30;;
735;SDS011;352;48.626;9.238;2023-10-13T00:43:16;5.60;;;4.57;;
735;SDS011;352;48.626;9.238;2023-10-13T00:46:04;6.30;;;4.90;;
735;SDS011;352;48.626;9.238;2023-10-13T00:48:33;4.50;;;4.10;;
735;SDS011;352;48.626;9.238;2023-10-13T00:51:07;5.13;;;4.40;;
735;SDS011;352;48.626;9.238;2023-10-13T00:53:43;8.60;;;5.07;;
735;SDS011;352;48.626;9.238;2023-10-13T00:56:12;4.53;;;4.13;;
735;SDS011;352;48.626;9.238;2023-10-13T00:58:44;4.13;;;3.60;;
735;SDS011;352;48.626;9.238;2023-10-13T01:01:12;5.03;;;4.53;;
735;SDS011;352;48.626;9.238;2023-10-13T01:03:46;4.83;;;4.30;;
735;SDS011;352;48.626;9.238;2023-10-13T01:06:15;7.43;;;4.60;;
735;SDS011;352;48.626;9.238;2023-10-13T01:08:42;5.00;;;4.50;;
735;SDS011;352;48.626;9.238;2023-10-13T01:11:10;5.10;;;4.60;;
735;SDS011;352;48.626;9.238;2023-10-13T01:13:38;4.30;;;3.90;;
735;SDS011;352;48.626;9.238;2023-10-13T01:16:06;5.40;;;4.37;;
735;SDS011;352;48.626;9.238;2023-10-13T01:18:34;7.33;;;4.40;;
735;SDS011;352;48.626;9.238;2023-10-13T01:21:13;5.10;;;4.37;;
735;SDS011;352;48.626;9.238;2023-10-13T01:23:43;9.20;;;5.30;;
735;SDS011;352;48.626;9.238;2023-10-13T01:26:11;4.33;;;3.93;;
735;SDS011;352;48.626;9.238;2023-10-13T01:28:38;7.63;;;4.47;;
735;SDS011;352;48.626;9.238;2023-10-13T01:31:11;5.70;;;4.10;;
735;SDS011;352;48.626;9.238;2023-10-13T01:33:41;6.50;;;4.80;;
735;SDS011;352;48.626;9.238;2023-10-13T01:36:08;7.87;;;4.60;;
735;SDS011;352;48.626;9.238;2023-10-13T01:38:37;6.20;;;5.17;;
735;SDS011;352;48.626;9.238;2023-10-13T01:41:07;5.10;;;4.10;;
735;SDS011;352;48.626;9.238;2023-10-13T01:43:34;6.40;;;4.93;;
735;SDS011;352;48.626;9.238;2023-10-13T01:46:01;5.23;;;4.73;;
735;SDS011;352;48.626;9.238;2023-10-13T01:48:28;7.27;;;4.70;;
735;SDS011;352;48.626;9.238;2023-10-13T01:50:57;6.03;;;4.93;;
735;SDS011;352;48.626;9.238;2023-10-13T01:53:25;7.10;;;4.70;;
735;SDS011;352;48.626;9.238;2023-10-13T01:55:54;5.97;;;4.63;;
735;SDS011;352;48.626;9.238;2023-10-13T01:58:23;9.13;;;5.03;;
735;SDS011;352;48.626;9.238;2023-10-13T02:00:51;5.70;;;4.63;;
735;SDS011;352;48.626;9.238;2023-10-13T02:03:17;10.73;;;5.40;;
735;SDS011;352;48.626;9.238;2023-10-13T02:05:46;6.00;;;5.10;;
735;SDS011;352;48.626;9.238;2023-10-13T02:08:13;6.20;;;4.80;;
735;SDS011;352;48.626;9.238;2023-10-13T02:10:48;5.37;;;4.40;;
735;SDS011;352;48.626;9.238;2023-10-13T02:13:14;5.70;;;4.47;;
735;SDS011;352;48.626;9.238;2023-10-13T02:15:44;9.50;;;5.03;;
735;SDS011;352;48.626;9.238;2023-10-13T02:18:12;7.53;;;6.33;;
735;SDS011;352;48.626;9.238;2023-10-13T02:20:45;8.23;;;5.20;;
735;SDS011;352;48.626;9.238;2023-10-13T02:23:12;5.90;;;4.70;;
735;SDS011;352;48.626;9.238;2023-10-13T02:25:39;8.60;;;5.80;;
735;SDS011;352;48.626;9.238;2023-10-13T02:28:08;7.60;;;5.10;;
735;SDS011;352;48.626;9.238;2023-10-13T02:30:38;6.10;;;5.50;;
735;SDS011;352;48.626;9.238;2023-10-13T02:33:06;7.63;;;4.97;;
735;SDS011;352;48.626;9.238;2023-10-13T02:35:35;6.07;;;4.90;;
735;SDS011;352;48.626;9.238;2023-10-13T02:38:01;7.23;;;4.40;;
735;SDS011;352;48.626;9.238;2023-10-13T02:40:35;6.07;;;4.87;;
735;SDS011;352;48.626;9.238;2023-10-13T02:43:01;6.33;;;4.93;;
735;SDS011;352;48.626;9.238;2023-10-13T02:45:29;5.90;;;5.40;;
735;SDS011;352;48.626;9.238;2023-10-13T02:47:55;6.50;;;4.90;;
735;SDS011;352;48.626;9.238;2023-10-13T02:50:38;8.10;;;4.60;;
735;SDS011;352;48.626;9.238;2023-10-13T02:53:08;7.70;;;5.30;;
735;SDS011;352;48.626;9.238;2023-10-13T02:55:37;5.47;;;4.97;;
735;SDS011;352;48.626;9.238;2023-10-13T02:58:04;7.20;;;4.77;;
735;SDS011;352;48.626;9.238;2023-10-13T03:00:33;6.83;;;4.50;;
735;SDS011;352;48.626;9.238;2023-10-13T03:02:59;7.53;;;5.30;;
735;SDS011;352;48.626;9.238;2023-10-13T03:05:26;5.33;;;4.83;;
735;SDS011;352;48.626;9.238;2023-10-13T03:07:57;6.77;;;5.23;;
735;SDS011;352;48.626;9.238;2023-10-13T03:10:29;6.13;;;5.50;;
735;SDS011;352;48.626;9.238;2023-10-13T03:12:55;6.87;;;4.93;;
735;SDS011;352;48.626;9.238;2023-10-13T03:15:22;7.07;;;4.90;;
735;SDS011;352;48.626;9.238;2023-10-13T03:17:55;6.13;;;4.53;;
735;SDS011;352;48.626;9.238;2023-10-13T03:20:23;7.00;;;6.33;;
735;SDS011;352;48.626;9.238;2023-10-13T03:22:57;7.57;;;6.00;;
735;SDS011;352;48.626;9.238;2023-10-13T03:25:24;13.20;;;7.70;;
735;SDS011;352;48.626;9.238;2023-10-13T03:27:54;14.03;;;10.20;;
735;SDS011;352;48.626;9.238;2023-10-13T03:30:29;12.87;;;9.43;;
735;SDS011;352;48.626;9.238;2023-10-13T03:33:01;12.50;;;9.00;;
735;SDS011;352;48.626;9.238;2023-10-13T03:35:31;9.10;;;6.87;;
735;SDS011;352;48.626;9.238;2023-10-13T03:38:06;9.93;;;7.10;;
735;SDS011;352;48.626;9.238;2023-10-13T03:40:41;9.67;;;7.30;;
735;SDS011;352;48.626;9.238;2023-10-13T03:43:13;10.77;;;7.23;;
735;SDS011;352;48.626;9.238;2023-10-13T03:45:46;10.20;;;7.10;;
735;SDS011;352;48.626;9.238;2023-10-13T03:48:18;9.10;;;7.03;;
735;SDS011;352;48.626;9.238;2023-10-13T03:50:55;6.80;;;6.10;;
735;SDS011;352;48.626;9.238;2023-10-13T03:53:33;7.50;;;6.40;;
735;SDS011;352;48.626;9.238;2023-10-13T03:56:01;6.70;;;5.80;;
735;SDS011;352;48.626;9.238;2023-10-13T03:58:37;6.30;;;4.90;;
735;SDS011;352;48.626;9.238;2023-10-13T04:01:10;9.30;;;5.93;;
735;SDS011;352;48.626;9.238;2023-10-13T04:03:40;6.87;;;5.90;;
735;SDS011;352;48.626;9.238;2023-10-13T04:06:22;7.60;;;6.53;;
735;SDS011;352;48.626;9.238;2023-10-13T04:09:10;7.03;;;6.33;;
735;SDS011;352;48.626;9.238;2023-10-13T04:11:57;7.20;;;6.13;;
735;SDS011;352;48.626;9.238;2023-10-13T04:14:43;7.37;;;6.57;;
735;SDS011;352;48.626;9.238;2023-10-13T04:17:40;10.17;;;6.43;;
735;SDS011;352;48.626;9.238;2023-10-13T04:20:10;6.87;;;6.27;;
735;SDS011;352;48.626;9.238;2023-10-13T04:22:52;8.40;;;6.27;;
735;SDS011;352;48.626;9.238;2023-10-13T04:25:38;6.93;;;6.33;;
735;SDS011;352;48.626;9.238;2023-10-13T04:28:17;9.37;;;6.50;;
735;SDS011;352;48.626;9.238;2023-10-13T04:30:58;7.00;;;5.47;;
735;SDS011;352;48.626;9.238;2023-10-13T04:33:37;8.17;;;6.03;;
735;SDS011;352;48.626;9.238;2023-10-13T04:36:16;7.70;;;5.77;;
735;SDS011;352;48.626;9.238;2023-10-13T04:38:47;7.23;;;5.73;;
735;SDS011;352;48.626;9.238;2023-10-13T04:41:26;7.20;;;6.50;;
735;SDS011;352;48.626;9.238;2023-10-13T04:43:57;7.80;;;6.00;;
735;SDS011;352;48.626;9.238;2023-10-13T04:46:29;6.93;;;6.23;;
735;SDS011;352;48.626;9.238;2023-10-13T04:49:19;7.60;;;6.23;;
735;SDS011;352;48.626;9.238;2023-10-13T04:51:53;8.03;;;6.20;;
735;SDS011;352;48.626;9.238;2023-10-13T04:54:26;8.97;;;6.13;;
735;SDS011;352;48.626;9.238;2023-10-13T04:57:00;12.70;;;6.73;;
735;SDS011;352;48.626;9.238;2023-10-13T04:59:44;10.97;;;6.53;;
735;SDS011;352;48.626;9.238;2023-10-13T05:02:29;7.00;;;5.80;;
735;SDS011;352;48.626;9.238;2023-10-13T05:05:20;7.87;;;6.80;;
735;SDS011;352;48.626;9.238;2023-10-13T05:08:08;6.63;;;5.80;;
735;SDS011;352;48.626;9.238;2023-10-13T05:10:52;11.13;;;7.00;;
735;SDS011;352;48.626;9.238;2023-10-13T05:13:38;7.10;;;6.40;;
735;SDS011;352;48.626;9.238;2023-10-13T05:16:22;10.90;;;6.77;;
735;SDS011;352;48.626;9.238;2023-10-13T05:19:07;7.17;;;6.37;;
735;SDS011;352;48.626;9.238;2023-10-13T05:21:51;8.80;;;6.57;;
735;SDS011;352;48.626;9.238;2023-10-13T05:24:36;9.40;;;6.50;;
735;SDS011;352;48.626;9.238;2023-10-13T05:27:32;7.63;;;6.93;;
735;SDS011;352;48.626;9.238;2023-10-13T05:30:17;9.43;;;6.40;;
735;SDS011;352;48.626;9.238;2023-10-13T05:33:01;9.03;;;6.17;;
735;SDS011;352;48.626;9.238;2023-10-13T05:35:46;8.57;;;6.50;;
735;SDS011;352;48.626;9.238;2023-10-13T05:38:31;8.77;;;6.30;;
735;SDS011;352;48.626;9.238;2023-10-13T05:41:15;8.97;;;5.97;;
735;SDS011;352;48.626;9.238;2023-10-13T05:44:00;7.70;;;5.93;;
735;SDS011;352;48.626;9.238;2023-10-13T05:46:46;14.17;;;8.23;;
735;SDS011;352;48.626;9.238;2023-10-13T05:49:26;10.17;;;7.70;;
735;SDS011;352;48.626;9.238;2023-10-13T05:52:06;10.97;;;7.87;;
735;SDS011;352;48.626;9.238;2023-10-13T05:54:44;8.60;;;6.93;;
735;SDS011;352;48.626;9.238;2023-10-13T05:57:29;6.70;;;5.87;;
735;SDS011;352;48.626;9.238;2023-10-13T06:00:14;8.30;;;6.60;;
735;SDS011;352;48.626;9.238;2023-10-13T06:03:00;11.57;;;5.80;;
735;SDS011;352;48.626;9.238;2023-10-13T06:05:45;7.10;;;5.80;;
735;SDS011;352;48.626;9.238;2023-10-13T06:08:29;7.73;;;6.60;;
735;SDS011;352;48.626;9.238;2023-10-13T06:11:14;9.20;;;6.80;;
735;SDS011;352;48.626;9.238;2023-10-13T06:13:59;8.93;;;6.90;;
735;SDS011;352;48.626;9.238;2023-10-13T06:16:43;8.03;;;6.53;;
735;SDS011;352;48.626;9.238;2023-10-13T06:19:29;7.60;;;6.50;;
735;SDS011;352;48.626;9.238;2023-10-13T06:22:16;10.67;;;6.80;;
735;SDS011;352;48.626;9.238;2023-10-13T06:25:01;7.53;;;6.70;;
735;SDS011;352;48.626;9.238;2023-10-13T06:27:51;8.17;;;6.60;;
735;SDS011;352;48.626;9.238;2023-10-13T06:30:35;10.10;;;7.93;;
735;SDS011;352;48.626;9.238;2023-10-13T06:33:03;12.73;;;7.50;;
735;SDS011;352;48.626;9.238;2023-10-13T06:35:31;9.17;;;6.10;;
735;SDS011;352;48.626;9.238;2023-10-13T06:37:59;10.30;;;7.20;;
735;SDS011;352;48.626;9.238;2023-10-13T06:40:28;9.87;;;6.27;;
735;SDS011;352;48.626;9.238;2023-10-13T06:42:59;8.53;;;6.67;;
735;SDS011;352;48.626;9.238;2023-10-13T06:45:38;13.80;;;7.10;;
735;SDS011;352;48.626;9.238;2023-10-13T06:48:05;7.70;;;6.90;;
735;SDS011;352;48.626;9.238;2023-10-13T06:50:37;9.33;;;7.30;;
735;SDS011;352;48.626;9.238;2023-10-13T06:53:06;11.90;;;7.47;;
735;SDS011;352;48.626;9.238;2023-10-13T06:55:37;10.30;;;6.10;;
735;SDS011;352;48.626;9.238;2023-10-13T06:58:05;13.07;;;8.27;;
735;SDS011;352;48.626;9.238;2023-10-13T07:00:32;9.87;;;7.87;;
735;SDS011;352;48.626;9.238;2023-10-13T07:02:59;9.90;;;7.40;;
735;SDS011;352;48.626;9.238;2023-10-13T07:05:33;11.13;;;7.70;;
735;SDS011;352;48.626;9.238;2023-10-13T07:08:04;11.20;;;8.70;;
735;SDS011;352;48.626;9.238;2023-10-13T07:10:32;9.23;;;8.37;;
735;SDS011;352;48.626;9.238;2023-10-13T07:13:09;12.53;;;8.77;;
735;SDS011;352;48.626;9.238;2023-10-13T07:15:38;12.83;;;7.83;;
735;SDS011;352;48.626;9.238;2023-10-13T07:18:10;9.13;;;7.13;;
735;SDS011;352;48.626;9.238;2023-10-13T07:20:38;10.83;;;8.07;;
735;SDS011;352;48.626;9.238;2023-10-13T07:23:11;7.67;;;6.87;;
735;SDS011;352;48.626;9.238;2023-10-13T07:25:43;8.37;;;7.53;;
735;SDS011;352;48.626;9.238;2023-10-13T07:28:17;7.53;;;6.30;;
735;SDS011;352;48.626;9.238;2023-10-13T07:30:44;7.80;;;6.73;;
735;SDS011;352;48.626;9.238;2023-10-13T07:33:35;8.60;;;7.80;;
735;SDS011;352;48.626;9.238;2023-10-13T07:36:03;7.07;;;6.37;;
735;SDS011;352;48.626;9.238;2023-10-13T07:38:41;8.23;;;6.70;;
735;SDS011;352;48.626;9.238;2023-10-13T07:41:13;9.57;;;6.80;;
735;SDS011;352;48.626;9.238;2023-10-13T07:43:41;9.53;;;7.33;;
735;SDS011;352;48.626;9.238;2023-10-13T07:46:10;11.07;;;7.13;;
735;SDS011;352;48.626;9.238;2023-10-13T07:48:37;8.23;;;7.03;;
735;SDS011;352;48.626;9.238;2023-10-13T07:51:06;8.30;;;6.47;;
735;SDS011;352;48.626;9.238;2023-10-13T07:53:36;9.20;;;6.50;;
735;SDS011;352;48.626;9.238;2023-10-13T07:56:06;7.83;;;6.00;;
735;SDS011;352;48.626;9.238;2023-10-13T07:58:36;8.10;;;6.07;;
735;SDS011;352;48.626;9.238;2023-10-13T08:01:12;9.37;;;6.13;;
735;SDS011;352;48.626;9.238;2023-10-13T08:03:43;9.50;;;7.50;;
735;SDS011;352;48.626;9.238;2023-10-13T08:06:10;8.33;;;6.40;;
735;SDS011;352;48.626;9.238;2023-10-13T08:08:51;8.80;;;6.03;;
735;SDS011;352;48.626;9.238;2023-10-13T08:11:33;10.27;;;7.10;;
735;SDS011;352;48.626;9.238;2023-10-13T08:14:02;7.53;;;6.10;;
735;SDS011;352;48.626;9.238;2023-10-13T08:16:47;12.50;;;5.23;;
735;SDS011;352;48.626;9.238;2023-10-13T08:19:25;6.17;;;5.10;;
735;SDS011;352;48.626;9.238;2023-10-13T08:21:53;6.43;;;5.83;;
735;SDS011;352;48.626;9.238;2023-10-13T08:24:24;6.70;;;5.33;;
735;SDS011;352;48.626;9.238;2023-10-13T08:26:55;6.83;;;5.50;;
735;SDS011;352;48.626;9.238;2023-10-13T08:29:38;8.10;;;5.03;;
735;SDS011;352;48.626;9.238;2023-10-13T08:32:31;8.20;;;5.00;;
735;SDS011;352;48.626;9.238;2023-10-13T08:35:19;6.40;;;5.60;;
735;SDS011;352;48.626;9.238;2023-10-13T08:37:59;7.90;;;5.70;;
735;SDS011;352;48.626;9.238;2023-10-13T08:40:29;10.67;;;5.53;;
735;SDS011;352;48.626;9.238;2023-10-13T08:43:15;6.60;;;5.60;;
735;SDS011;352;48.626;9.238;2023-10-13T08:45:43;8.23;;;5.07;;
735;SDS011;352;48.626;9.238;2023-10-13T08:48:18;11.00;;;5.93;;
735;SDS011;352;48.626;9.238;2023-10-13T08:50:56;7.97;;;5.23;;
735;SDS011;352;48.626;9.238;2023-10-13T08:53:31;7.43;;;5.47;;
735;SDS011;352;48.626;9.238;2023-10-13T08:55:59;6.13;;;5.57;;
735;SDS011;352;48.626;9.238;2023-10-13T08:58:32;7.03;;;5.40;;
735;SDS011;352;48.626;9.238;2023-10-13T09:01:17;5.30;;;4.80;;
735;SDS011;352;48.626;9.238;2023-10-13T09:03:58;8.03;;;5.33;;
735;SDS011;352;48.626;9.238;2023-10-13T09:06:46;6.83;;;5.00;;
735;SDS011;352;48.626;9.238;2023-10-13T09:09:18;7.90;;;5.03;;
735;SDS011;352;48.626;9.238;2023-10-13T09:11:59;9.67;;;5.77;;
735;SDS011;352;48.626;9.238;2023-10-13T09:14:36;9.23;;;5.13;;
735;SDS011;352;48.626;9.238;2023-10-13T09:17:08;7.10;;;4.73;;
735;SDS011;352;48.626;9.238;2023-10-13T09:19:43;8.07;;;5.00;;
735;SDS011;352;48.626;9.238;2023-10-13T09:22:22;6.73;;;4.93;;
735;SDS011;352;48.626;9.238;2023-10-13T09:24:56;5.70;;;5.03;;
735;SDS011;352;48.626;9.238;2023-10-13T09:27:25;9.23;;;7.23;;
735;SDS011;352;48.626;9.238;2023-10-13T09:30:00;9.80;;;6.93;;
735;SDS011;352;48.626;9.238;2023-10-13T09:32:34;10.60;;;6.13;;
735;SDS011;352;48.626;9.238;2023-10-13T09:35:10;6.87;;;5.90;;
735;SDS011;352;48.626;9.238;2023-10-13T09:37:44;12.40;;;5.43;;
735;SDS011;352;48.626;9.238;2023-10-13T09:40:11;5.97;;;5.10;;
735;SDS011;352;48.626;9.238;2023-10-13T09:42:51;8.67;;;4.57;;
735;SDS011;352;48.626;9.238;2023-10-13T09:45:19;8.63;;;5.17;;
735;SDS011;352;48.626;9.238;2023-10-13T09:47:52;8.87;;;5.10;;
735;SDS011;352;48.626;9.238;2023-10-13T09:50:22;8.50;;;4.93;;
735;SDS011;352;48.626;9.238;2023-10-13T09:52:50;9.73;;;6.80;;
735;SDS011;352;48.626;9.238;2023-10-13T09:55:21;8.80;;;4.97;;
735;SDS011;352;48.626;9.238;2023-10-13T09:57:53;8.47;;;5.33;;
735;SDS011;352;48.626;9.238;2023-10-13T10:00:27;10.30;;;5.23;;
735;SDS011;352;48.626;9.238;2023-10-13T10:03:11;5.63;;;4.50;;
735;SDS011;352;48.626;9.238;2023-10-13T10:05:58;4.90;;;4.50;;
735;SDS011;352;48.626;9.238;2023-10-13T10:08:38;7.70;;;5.07;;
735;SDS011;352;48.626;9.238;2023-10-13T10:11:26;7.10;;;4.83;;
735;SDS011;352;48.626;9.238;2023-10-13T10:14:15;11.13;;;5.10;;
735;SDS011;352;48.626;9.238;2023-10-13T10:16:50;7.97;;;5.30;;
735;SDS011;352;48.626;9.238;2023-10-13T10:19:32;11.47;;;4.73;;
735;SDS011;352;48.626;9.238;2023-10-13T10:22:01;11.60;;;5.67;;
735;SDS011;352;48.626;9.238;2023-10-13T10:24:35;7.33;;;5.10;;
735;SDS011;352;48.626;9.238;2023-10-13T10:27:03;12.57;;;5.37;;
735;SDS011;352;48.626;9.238;2023-10-13T10:29:31;5.77;;;5.27;;
735;SDS011;352;48.626;9.238;2023-10-13T10:32:00;5.37;;;4.70;;
735;SDS011;352;48.626;9.238;2023-10-13T10:34:38;6.47;;;4.77;;
735;SDS011;352;48.626;9.238;2023-10-13T10:37:05;5.50;;;4.70;;
735;SDS011;352;48.626;9.238;2023-10-13T10:39:34;6.43;;;4.57;;
735;SDS011;352;48.626;9.238;2023-10-13T10:42:10;9.70;;;4.73;;
735;SDS011;352;48.626;9.238;2023-10-13T10:44:40;5.73;;;4.40;;
735;SDS011;352;48.626;9.238;2023-10-13T10:47:10;6.93;;;4.43;;
735;SDS011;352;48.626;9.238;2023-10-13T10:49:44;4.77;;;4.30;;
735;SDS011;352;48.626;9.238;2023-10-13T10:52:12;6.80;;;4.10;;
735;SDS011;352;48.626;9.238;2023-10-13T10:54:44;5.47;;;4.40;;
735;SDS011;352;48.626;9.238;2023-10-13T10:57:16;5.07;;;3.83;;
735;SDS011;352;48.626;9.238;2023-10-13T10:59:43;5.73;;;4.33;;
735;SDS011;352;48.626;9.238;2023-10-13T11:02:11;6.20;;;4.60;;
735;SDS011;352;48.626;9.238;2023-10-13T11:04:43;7.40;;;4.23;;
735;SDS011;352;48.626;9.238;2023-10-13T11:07:20;6.70;;;4.60;;
735;SDS011;352;48.626;9.238;2023-10-13T11:09:48;5.40;;;4.50;;
735;SDS011;352;48.626;9.238;2023-10-13T11:12:18;9.10;;;4.50;;
735;SDS011;352;48.626;9.238;2023-10-13T11:14:59;8.77;;;5.00;;
735;SDS011;352;48.626;9.238;2023-10-13T11:17:30;10.63;;;4.70;;
735;SDS011;352;48.626;9.238;2023-10-13T11:20:10;5.37;;;4.87;;
735;SDS011;352;48.626;9.238;2023-10-13T11:22:45;5.50;;;4.30;;
735;SDS011;352;48.626;9.238;2023-10-13T11:25:19;6.07;;;3.97;;
735;SDS011;352;48.626;9.238;2023-10-13T11:27:48;4.67;;;4.10;;
735;SDS011;352;48.626;9.238;2023-10-13T11:30:25;5.90;;;3.80;;
735;SDS011;352;48.626;9.238;2023-10-13T11:33:07;5.10;;;4.63;;
735;SDS011;352;48.626;9.238;2023-10-13T11:35:35;7.40;;;4.23;;
735;SDS011;352;48.626;9.238;2023-10-13T11:38:20;4.80;;;4.03;;
735;SDS011;352;48.626;9.238;2023-10-13T11:40:51;7.07;;;3.77;;
735;SDS011;352;48.626;9.238;2023-10-13T11:43:35;4.00;;;3.70;;
735;SDS011;352;48.626;9.238;2023-10-13T11:46:18;6.87;;;4.17;;
735;SDS011;352;48.626;9.238;2023-10-13T11:49:05;8.40;;;4.53;;
735;SDS011;352;48.626;9.238;2023-10-13T11:51:42;7.77;;;4.67;;
735;SDS011;352;48.626;9.238;2023-10-13T11:54:11;5.53;;;5.00;;
735;SDS011;352;48.626;9.238;2023-10-13T11:56:38;4.73;;;4.13;;
735;SDS011;352;48.626;9.238;2023-10-13T11:59:04;9.40;;;5.40;;
735;SDS011;352;48.626;9.238;2023-10-13T12:01:41;6.23;;;4.60;;
735;SDS011;352;48.626;9.238;2023-10-13T12:04:27;6.93;;;4.90;;
735;SDS011;352;48.626;9.238;2023-10-13T12:07:05;6.53;;;4.90;;
735;SDS011;352;48.626;9.238;2023-10-13T12:09:42;4.83;;;4.30;;
735;SDS011;352;48.626;9.238;2023-10-13T12:12:28;6.70;;;4.47;;
735;SDS011;352;48.626;9.238;2023-10-13T12:14:56;7.17;;;4.67;;
735;SDS011;352;48.626;9.238;2023-10-13T12:17:24;7.60;;;4.83;;
735;SDS011;352;48.626;9.238;2023-10-13T12:19:57;6.90;;;4.60;;
735;SDS011;352;48.626;9.238;2023-10-13T12:22:25;15.50;;;5.60;;
735;SDS011;352;48.626;9.238;2023-10-13T12:24:53;4.87;;;4.10;;
735;SDS011;352;48.626;9.238;2023-10-13T12:27:20;4.83;;;4.23;;
735;SDS011;352;48.626;9.238;2023-10-13T12:29:52;7.30;;;4.60;;
735;SDS011;352;48.626;9.238;2023-10-13T12:32:21;8.40;;;4.50;;
735;SDS011;352;48.626;9.238;2023-10-13T12:34:50;5.10;;;4.70;;
735;SDS011;352;48.626;9.238;2023-10-13T12:37:27;4.57;;;4.17;;
735;SDS011;352;48.626;9.238;2023-10-13T12:40:15;8.97;;;4.57;;
735;SDS011;352;48.626;9.238;2023-10-13T12:43:01;5.63;;;4.17;;
735;SDS011;352;48.626;9.238;2023-10-13T12:45:46;7.33;;;4.60;;
735;SDS011;352;48.626;9.238;2023-10-13T12:48:31;6.67;;;4.60;;
735;SDS011;352;48.626;9.238;2023-10-13T12:51:16;8.03;;;4.73;;
735;SDS011;352;48.626;9.238;2023-10-13T12:53:50;8.53;;;4.70;;
735;SDS011;352;48.626;9.238;2023-10-13T12:56:18;6.50;;;4.40;;
735;SDS011;352;48.626;9.238;2023-10-13T12:58:51;6.07;;;4.07;;
735;SDS011;352;48.626;9.238;2023-10-13T13:01:19;5.23;;;4.60;;
735;SDS011;352;48.626;9.238;2023-10-13T13:03:46;7.30;;;4.63;;
735;SDS011;352;48.626;9.238;2023-10-13T13:06:17;6.87;;;4.20;;
735;SDS011;352;48.626;9.238;2023-10-13T13:08:51;8.80;;;5.00;;
735;SDS011;352;48.626;9.238;2023-10-13T13:11:18;5.37;;;4.30;;
735;SDS011;352;48.626;9.238;2023-10-13T13:13:45;6.03;;;4.50;;
735;SDS011;352;48.626;9.238;2023-10-13T13:16:12;6.30;;;4.50;;
735;SDS011;352;48.626;9.238;2023-10-13T13:18:39;6.83;;;5.67;;
735;SDS011;352;48.626;9.238;2023-10-13T13:21:08;10.67;;;5.07;;
735;SDS011;352;48.626;9.238;2023-10-13T13:23:37;11.33;;;4.80;;
735;SDS011;352;48.626;9.238;2023-10-13T13:26:06;6.60;;;4.83;;
735;SDS011;352;48.626;9.238;2023-10-13T13:28:40;10.27;;;4.80;;
735;SDS011;352;48.626;9.238;2023-10-13T13:31:07;4.53;;;4.00;;
735;SDS011;352;48.626;9.238;2023-10-13T13:33:37;9.00;;;4.83;;
735;SDS011;352;48.626;9.238;2023-10-13T13:36:07;5.37;;;4.37;;
735;SDS011;352;48.626;9.238;2023-10-13T13:38:38;5.60;;;4.30;;
735;SDS011;352;48.626;9.238;2023-10-13T13:41:08;9.93;;;4.43;;
735;SDS011;352;48.626;9.238;2023-10-13T13:43:41;5.90;;;4.73;;
735;SDS011;352;48.626;9.238;2023-10-13T13:46:15;5.50;;;4.33;;
735;SDS011;352;48.626;9.238;2023-10-13T13:48:43;5.87;;;4.60;;
735;SDS011;352;48.626;9.238;2023-10-13T13:51:13;5.60;;;3.90;;
735;SDS011;352;48.626;9.238;2023-10-13T13:53:40;5.00;;;4.40;;
735;SDS011;352;48.626;9.238;2023-10-13T13:56:11;4.97;;;3.73;;
735;SDS011;352;48.626;9.238;2023-10-13T13:58:41;4.73;;;4.33;;
735;SDS011;352;48.626;9.238;2023-10-13T14:01:08;5.30;;;3.70;;
735;SDS011;352;48.626;9.238;2023-10-13T14:03:39;5.07;;;4.37;;
735;SDS011;352;48.626;9.238;2023-10-13T14:06:10;6.50;;;4.03;;
735;SDS011;352;48.626;9.238;2023-10-13T14:08:43;5.87;;;4.20;;
735;SDS011;352;48.626;9.238;2023-10-13T14:11:14;5.93;;;3.60;;
735;SDS011;352;48.626;9.238;2023-10-13T14:13:55;7.13;;;4.50;;
735;SDS011;352;48.626;9.238;2023-10-13T14:16:22;4.50;;;4.10;;
735;SDS011;352;48.626;9.238;2023-10-13T14:18:49;4.57;;;4.00;;
735;SDS011;352;48.626;9.238;2023-10-13T14:21:18;4.00;;;3.67;;
735;SDS011;352;48.626;9.238;2023-10-13T14:23:49;5.40;;;3.70;;
735;SDS011;352;48.626;9.238;2023-10-13T14:26:20;8.20;;;4.77;;
735;SDS011;352;48.626;9.238;2023-10-13T14:28:50;8.33;;;4.50;;
735;SDS011;352;48.626;9.238;2023-10-13T14:31:25;4.87;;;3.83;;
735;SDS011;352;48.626;9.238;2023-10-13T14:33:52;4.63;;;3.93;;
735;SDS011;352;48.626;9.238;2023-10-13T14:36:19;5.70;;;4.73;;
735;SDS011;352;48.626;9.238;2023-10-13T14:38:46;4.23;;;3.87;;
735;SDS011;352;48.626;9.238;2023-10-13T14:41:15;4.60;;;4.20;;
735;SDS011;352;48.626;9.238;2023-10-13T14:43:44;6.80;;;4.10;;
735;SDS011;352;48.626;9.238;2023-10-13T14:46:14;4.00;;;3.80;;
735;SDS011;352;48.626;9.238;2023-10-13T14:48:41;4.97;;;3.80;;
735;SDS011;352;48.626;9.238;2023-10-13T14:51:08;5.00;;;4.00;;
735;SDS011;352;48.626;9.238;2023-10-13T14:53:38;4.83;;;4.10;;
735;SDS011;352;48.626;9.238;2023-10-13T14:56:08;4.93;;;4.37;;
735;SDS011;352;48.626;9.238;2023-10-13T14:58:36;4.13;;;3.57;;
735;SDS011;352;48.626;9.238;2023-10-13T15:01:11;3.40;;;3.10;;
735;SDS011;352;48.626;9.238;2023-10-13T15:03:40;4.80;;;3.33;;
735;SDS011;352;48.626;9.238;2023-10-13T15:06:08;5.20;;;3.30;;
735;SDS011;352;48.626;9.238;2023-10-13T15:08:42;3.53;;;3.23;;
735;SDS011;352;48.626;9.238;2023-10-13T15:11:11;4.63;;;3.10;;
735;SDS011;352;48.626;9.238;2023-10-13T15:13:38;4.27;;;3.13;;
735;SDS011;352;48.626;9.238;2023-10-13T15:16:16;3.70;;;3.00;;
735;SDS011;352;48.626;9.238;2023-10-13T15:18:44;5.10;;;3.30;;
735;SDS011;352;48.626;9.238;2023-10-13T15:21:11;3.90;;;2.83;;
735;SDS011;352;48.626;9.238;2023-10-13T15:23:44;4.07;;;3.40;;
735;SDS011;352;48.626;9.238;2023-10-13T15:26:11;3.87;;;2.83;;
735;SDS011;352;48.626;9.238;2023-10-13T15:28:39;7.90;;;3.50;;
735;SDS011;352;48.626;9.238;2023-10-13T15:31:13;3.77;;;2.83;;
735;SDS011;352;48.626;9.238;2023-10-13T15:34:03;3.70;;;2.60;;
735;SDS011;352;48.626;9.238;2023-10-13T15:36:32;3.23;;;2.73;;
735;SDS011;352;48.626;9.238;2023-10-13T15:38:59;4.70;;;2.77;;
735;SDS011;352;48.626;9.238;2023-10-13T15:41:27;3.70;;;3.33;;
735;SDS011;352;48.626;9.238;2023-10-13T15:43:54;6.90;;;3.00;;
735;SDS011;352;48.626;9.238;2023-10-13T15:46:23;3.03;;;2.63;;
735;SDS011;352;48.626;9.238;2023-10-13T15:48:51;3.47;;;2.97;;
735;SDS011;352;48.626;9.238;2023-10-13T15:51:18;2.60;;;2.40;;
735;SDS011;352;48.626;9.238;2023-10-13T15:53:46;6.07;;;2.70;;
735;SDS011;352;48.626;9.238;2023-10-13T15:56:13;4.13;;;3.10;;
735;SDS011;352;48.626;9.238;2023-10-13T15:58:42;4.77;;;2.93;;
735;SDS011;352;48.626;9.238;2023-10-13T16:01:10;3.50;;;2.67;;
735;SDS011;352;48.626;9.238;2023-10-13T16:03:39;3.73;;;3.20;;
735;SDS011;352;48.626;9.238;2023-10-13T16:06:08;3.67;;;2.70;;
735;SDS011;352;48.626;9.238;2023-10-13T16:08:36;7.90;;;3.20;;
735;SDS011;352;48.626;9.238;2023-10-13T16:11:04;3.93;;;2.97;;
735;SDS011;352;48.626;9.238;2023-10-13T16:13:32;5.53;;;3.50;;
735;SDS011;352;48.626;9.238;2023-10-13T16:16:01;7.00;;;4.03;;
735;SDS011;352;48.626;9.238;2023-10-13T16:18:28;4.70;;;3.60;;
735;SDS011;352;48.626;9.238;2023-10-13T16:20:59;4.00;;;3.37;;
735;SDS011;352;48.626;9.238;2023-10-13T16:23:28;5.80;;;4.20;;